createdAt,value
2022-07-27T00:00:08.292Z,1.98
2022-07-27T00:02:13.483Z,2.03
2022-07-27T00:04:15.268Z,2.03
2022-07-27T00:06:16.911Z,2.30
2022-07-27T00:08:20.650Z,2.10
2022-07-27T00:10:22.770Z,2.50
2022-07-27T00:12:24.315Z,2.25
2022-07-27T00:14:25.916Z,2.47
2022-07-27T00:16:27.549Z,2.28
2022-07-27T00:18:29.128Z,2.17
2022-07-27T00:20:32.336Z,2.63
2022-07-27T00:22:33.794Z,2.70
2022-07-27T00:24:35.405Z,2.30
2022-07-27T00:26:36.959Z,2.60
2022-07-27T00:28:38.564Z,2.28
2022-07-27T00:30:40.455Z,2.60
2022-07-27T00:32:42.230Z,2.03
2022-07-27T00:34:44.758Z,2.40
2022-07-27T00:36:46.641Z,2.33
2022-07-27T00:38:49.656Z,2.67
2022-07-27T00:40:51.386Z,2.45
2022-07-27T00:42:53.554Z,2.50
2022-07-27T00:44:55.430Z,2.55
2022-07-27T00:46:57.812Z,2.50
2022-07-27T00:48:59.855Z,2.50
2022-07-27T00:51:01.817Z,2.63
2022-07-27T00:53:04.938Z,2.42
2022-07-27T00:55:07.036Z,2.42
2022-07-27T00:57:12.930Z,2.40
2022-07-27T00:59:15.175Z,2.20
2022-07-27T01:01:19.108Z,2.30
2022-07-27T01:03:20.778Z,2.53
2022-07-27T01:05:36.516Z,2.47
2022-07-27T01:07:40.599Z,2.58
2022-07-27T01:09:58.347Z,2.70
2022-07-27T01:12:00.571Z,2.75
2022-07-27T01:14:02.159Z,2.60
2022-07-27T01:16:06.700Z,2.78
2022-07-27T01:18:13.030Z,2.65
2022-07-27T01:20:14.678Z,2.65
2022-07-27T01:22:16.265Z,2.70
2022-07-27T01:24:18.058Z,2.50
2022-07-27T01:26:20.719Z,2.42
2022-07-27T01:28:22.242Z,2.50
2022-07-27T01:30:26.562Z,2.60
2022-07-27T01:32:28.117Z,2.53
2022-07-27T01:34:30.028Z,2.75
2022-07-27T01:36:31.984Z,2.92
2022-07-27T01:38:33.542Z,3.08
2022-07-27T01:40:37.128Z,2.95
2022-07-27T01:42:38.861Z,3.00
2022-07-27T01:44:40.386Z,2.97
2022-07-27T01:46:42.142Z,3.05
2022-07-27T01:48:43.785Z,3.28
2022-07-27T01:50:46.214Z,2.90
2022-07-27T01:52:49.461Z,2.70
2022-07-27T01:54:51.017Z,3.05
2022-07-27T01:56:52.878Z,3.08
2022-07-27T01:58:56.395Z,3.70
2022-07-27T02:00:57.948Z,2.97
2022-07-27T02:03:02.333Z,3.15
2022-07-27T02:05:05.152Z,2.67
2022-07-27T02:07:06.799Z,3.22
2022-07-27T02:09:08.426Z,3.33
2022-07-27T02:11:28.945Z,3.08
2022-07-27T02:13:32.509Z,2.90
2022-07-27T02:15:43.045Z,2.90
2022-07-27T02:17:45.690Z,2.90
2022-07-27T02:19:47.241Z,3.15
2022-07-27T02:21:48.875Z,2.95
2022-07-27T02:23:50.581Z,2.85
2022-07-27T02:25:52.190Z,2.90
2022-07-27T02:27:53.713Z,2.90
2022-07-27T02:29:55.568Z,2.83
2022-07-27T02:31:57.236Z,2.85
2022-07-27T02:33:58.687Z,3.10
2022-07-27T02:36:00.354Z,2.78
2022-07-27T02:38:02.280Z,2.90
2022-07-27T02:40:04.464Z,2.80
2022-07-27T02:42:06.324Z,3.05
2022-07-27T02:44:07.872Z,2.83
2022-07-27T02:46:09.538Z,2.92
2022-07-27T02:48:11.230Z,3.10
2022-07-27T02:50:13.191Z,3.00
2022-07-27T02:52:14.962Z,2.75
2022-07-27T02:54:16.492Z,2.78
2022-07-27T02:56:18.024Z,3.17
2022-07-27T02:58:24.053Z,3.30
2022-07-27T03:00:25.805Z,2.53
2022-07-27T03:02:27.445Z,3.25
2022-07-27T03:04:29.109Z,2.80
2022-07-27T03:06:30.830Z,3.20
2022-07-27T03:08:32.311Z,2.80
2022-07-27T03:10:33.919Z,3.00
2022-07-27T03:12:35.544Z,2.92
2022-07-27T03:14:37.204Z,3.17
2022-07-27T03:16:39.742Z,2.88
2022-07-27T03:18:41.285Z,2.95
2022-07-27T03:20:42.823Z,3.08
2022-07-27T03:22:44.454Z,3.28
2022-07-27T03:24:46.514Z,3.10
2022-07-27T03:26:49.191Z,3.13
2022-07-27T03:28:50.798Z,2.88
2022-07-27T03:30:52.471Z,3.58
2022-07-27T03:32:54.051Z,3.50
2022-07-27T03:34:55.755Z,3.20
2022-07-27T03:36:57.448Z,3.00
2022-07-27T03:39:04.264Z,3.40
2022-07-27T03:41:07.918Z,3.25
2022-07-27T03:43:09.494Z,3.42
2022-07-27T03:45:11.361Z,3.30
2022-07-27T03:47:13.136Z,3.20
2022-07-27T03:49:15.563Z,3.30
2022-07-27T03:51:17.276Z,3.25
2022-07-27T03:53:21.417Z,3.40
2022-07-27T03:55:23.042Z,3.72
2022-07-27T03:57:25.186Z,3.38
2022-07-27T03:59:27.651Z,3.22
2022-07-27T04:01:29.440Z,3.22
2022-07-27T04:03:31.106Z,3.17
2022-07-27T04:05:32.683Z,3.22
2022-07-27T04:07:34.200Z,2.97
2022-07-27T04:09:37.480Z,3.35
2022-07-27T04:11:43.668Z,3.33
2022-07-27T04:13:52.339Z,3.25
2022-07-27T04:15:53.947Z,3.20
2022-07-27T04:17:57.498Z,3.30
2022-07-27T04:19:59.478Z,3.33
2022-07-27T04:22:00.980Z,3.60
2022-07-27T04:24:02.878Z,3.67
2022-07-27T04:26:04.672Z,3.38
2022-07-27T04:28:06.345Z,3.65
2022-07-27T04:30:09.798Z,3.50
2022-07-27T04:32:11.839Z,3.45
2022-07-27T04:34:13.490Z,3.70
2022-07-27T04:36:15.056Z,3.13
2022-07-27T04:38:16.682Z,3.63
2022-07-27T04:40:18.228Z,3.30
2022-07-27T04:42:19.839Z,3.22
2022-07-27T04:44:21.377Z,3.35
2022-07-27T04:46:23.221Z,3.53
2022-07-27T04:48:25.288Z,3.45
2022-07-27T04:50:26.888Z,3.30
2022-07-27T04:52:32.895Z,3.40
2022-07-27T04:54:34.458Z,3.28
2022-07-27T04:56:35.946Z,3.25
2022-07-27T04:58:37.674Z,3.20
2022-07-27T05:00:39.698Z,2.90
2022-07-27T05:02:41.464Z,2.70
2022-07-27T05:04:43.043Z,2.83
2022-07-27T05:06:44.675Z,2.35
2022-07-27T05:08:46.468Z,2.05
2022-07-27T05:10:48.495Z,2.30
2022-07-27T05:12:50.254Z,2.08
2022-07-27T05:14:51.858Z,2.10
2022-07-27T05:16:53.462Z,2.35
2022-07-27T05:18:55.340Z,1.80
2022-07-27T05:20:56.789Z,1.90
2022-07-27T05:22:58.625Z,1.80
2022-07-27T05:25:00.522Z,1.83
2022-07-27T05:27:02.149Z,2.08
2022-07-27T05:29:03.830Z,2.05
2022-07-27T05:31:05.661Z,1.83
2022-07-27T05:33:07.237Z,1.83
2022-07-27T05:35:09.473Z,1.70
2022-07-27T05:37:11.092Z,1.90
2022-07-27T05:39:14.010Z,2.00
2022-07-27T05:41:16.042Z,1.77
2022-07-27T05:43:17.637Z,1.70
2022-07-27T05:45:19.312Z,1.60
2022-07-27T05:47:21.232Z,1.70
2022-07-27T05:49:23.301Z,1.90
2022-07-27T05:51:25.066Z,1.65
2022-07-27T05:53:26.630Z,1.60
2022-07-27T05:55:28.650Z,1.80
2022-07-27T05:57:30.471Z,1.80
2022-07-27T05:59:32.836Z,1.70
2022-07-27T06:01:34.822Z,1.80
2022-07-27T06:03:38.066Z,1.60
2022-07-27T06:05:40.563Z,1.70
2022-07-27T06:08:00.467Z,1.80
2022-07-27T06:10:02.634Z,1.50
2022-07-27T06:12:04.285Z,1.67
2022-07-27T06:14:06.041Z,1.90
2022-07-27T06:16:07.820Z,1.50
2022-07-27T06:18:18.053Z,1.40
2022-07-27T06:20:21.615Z,1.70
2022-07-27T06:22:23.064Z,1.58
2022-07-27T06:24:25.124Z,1.58
2022-07-27T06:26:26.671Z,1.35
2022-07-27T06:28:28.386Z,1.38
2022-07-27T06:30:30.189Z,1.60
2022-07-27T06:32:31.737Z,1.67
2022-07-27T06:34:33.387Z,1.38
2022-07-27T06:36:39.752Z,1.70
2022-07-27T06:38:41.538Z,1.60
2022-07-27T06:40:43.153Z,1.58
2022-07-27T06:42:44.644Z,1.90
2022-07-27T06:44:46.935Z,1.60
2022-07-27T06:46:48.980Z,1.67
2022-07-27T06:48:50.596Z,1.60
2022-07-27T06:50:53.458Z,1.60
2022-07-27T06:52:55.136Z,1.63
2022-07-27T06:54:57.407Z,1.60
2022-07-27T06:56:59.555Z,1.60
2022-07-27T06:59:01.596Z,1.50
2022-07-27T07:01:04.418Z,1.30
2022-07-27T07:03:06.588Z,1.55
2022-07-27T07:05:08.500Z,1.50
2022-07-27T07:07:10.132Z,1.50
2022-07-27T07:09:12.365Z,1.63
2022-07-27T07:11:15.118Z,1.60
2022-07-27T07:13:16.932Z,1.65
2022-07-27T07:15:18.637Z,1.40
2022-07-27T07:17:20.212Z,1.60
2022-07-27T07:19:21.835Z,1.67
2022-07-27T07:21:23.663Z,1.48
2022-07-27T07:23:25.269Z,1.77
2022-07-27T07:25:28.042Z,1.50
2022-07-27T07:27:29.743Z,1.50
2022-07-27T07:29:31.512Z,1.60
2022-07-27T07:31:33.214Z,1.70
2022-07-27T07:33:34.822Z,1.50
2022-07-27T07:35:36.512Z,1.73
2022-07-27T07:37:38.223Z,1.40
2022-07-27T07:39:39.897Z,1.60
2022-07-27T07:41:41.622Z,1.40
2022-07-27T07:43:43.589Z,1.52
2022-07-27T07:45:50.528Z,1.50
2022-07-27T07:47:54.064Z,1.63
2022-07-27T07:49:55.613Z,1.50
2022-07-27T07:51:57.466Z,1.48
2022-07-27T07:53:59.418Z,1.60
2022-07-27T07:56:01.040Z,1.50
2022-07-27T07:58:02.764Z,1.60
2022-07-27T08:00:06.791Z,1.67
2022-07-27T08:02:13.201Z,1.50
2022-07-27T08:04:14.913Z,1.50
2022-07-27T08:06:16.486Z,1.40
2022-07-27T08:08:18.090Z,1.48
2022-07-27T08:10:21.886Z,1.48
2022-07-27T08:12:23.634Z,1.70
2022-07-27T08:14:26.506Z,1.60
2022-07-27T08:16:28.300Z,1.50
2022-07-27T08:18:29.919Z,1.38
2022-07-27T08:20:31.726Z,1.20
2022-07-27T08:22:33.468Z,1.40
2022-07-27T08:24:35.073Z,1.30
2022-07-27T08:26:36.732Z,1.50
2022-07-27T08:28:38.348Z,1.13
2022-07-27T08:30:40.102Z,1.30
2022-07-27T08:32:52.816Z,1.40
2022-07-27T08:34:54.649Z,1.20
2022-07-27T08:36:56.607Z,1.10
2022-07-27T08:38:59.105Z,1.33
2022-07-27T08:41:02.805Z,1.38
2022-07-27T08:43:05.555Z,1.17
2022-07-27T08:45:08.949Z,1.20
2022-07-27T08:47:14.009Z,1.20
2022-07-27T08:49:17.979Z,1.20
2022-07-27T08:51:23.765Z,1.20
2022-07-27T08:53:26.408Z,1.48
2022-07-27T08:55:48.468Z,1.17
2022-07-27T08:57:53.452Z,1.20
2022-07-27T08:59:56.790Z,1.40
2022-07-27T09:02:03.308Z,1.17
2022-07-27T09:04:08.383Z,1.30
2022-07-27T09:06:10.209Z,1.13
2022-07-27T09:08:17.251Z,1.40
2022-07-27T09:10:38.424Z,1.23
2022-07-27T09:12:40.205Z,1.30
2022-07-27T09:14:42.181Z,1.52
2022-07-27T09:17:44.202Z,1.45
2022-07-27T09:19:07.938Z,1.17
2022-07-27T09:21:10.752Z,1.38
2022-07-27T09:23:12.791Z,1.15
2022-07-27T09:25:16.702Z,1.33
2022-07-27T09:27:30.654Z,1.20
2022-07-27T09:29:36.440Z,1.20
2022-07-27T09:31:47.383Z,1.50
2022-07-27T09:33:51.604Z,1.30
2022-07-27T09:35:59.695Z,1.30
2022-07-27T09:38:36.858Z,1.58
2022-07-27T09:40:38.529Z,1.20
2022-07-27T09:43:14.553Z,1.40
2022-07-27T09:45:03.450Z,1.88
2022-07-27T09:47:29.203Z,1.30
2022-07-27T09:49:34.891Z,1.25
2022-07-27T09:52:01.976Z,1.50
2022-07-27T09:54:08.967Z,1.40
2022-07-27T09:56:13.474Z,1.52
2022-07-27T09:58:15.760Z,1.40
2022-07-27T10:00:18.000Z,1.30
2022-07-27T10:02:19.819Z,1.27
2022-07-27T10:04:22.765Z,1.52
2022-07-27T10:06:25.853Z,1.30
2022-07-27T10:08:28.908Z,1.67
2022-07-27T10:10:30.747Z,1.40
2022-07-27T10:12:32.579Z,1.40
2022-07-27T10:14:35.282Z,1.27
2022-07-27T10:16:39.802Z,1.40
2022-07-27T10:18:58.697Z,1.50
2022-07-27T10:21:07.141Z,1.60
2022-07-27T10:23:09.129Z,1.50
2022-07-27T10:25:10.877Z,1.40
2022-07-27T10:27:30.913Z,1.17
2022-07-27T10:29:32.421Z,1.80
2022-07-27T10:31:39.462Z,1.50
2022-07-27T10:33:43.616Z,1.52
2022-07-27T10:35:45.275Z,1.30
2022-07-27T10:38:07.977Z,1.50
2022-07-27T10:40:34.782Z,1.40
2022-07-27T10:42:36.476Z,1.45
2022-07-27T10:44:52.518Z,1.10
2022-07-27T10:46:56.791Z,1.60
2022-07-27T10:49:17.943Z,1.40
2022-07-27T10:51:34.777Z,1.58
2022-07-27T10:54:10.450Z,1.50
2022-07-27T10:56:04.826Z,1.60
2022-07-27T10:58:09.090Z,1.35
2022-07-27T11:00:17.706Z,1.50
2022-07-27T11:02:38.351Z,1.50
2022-07-27T11:04:46.381Z,1.50
2022-07-27T11:07:23.040Z,1.45
2022-07-27T11:11:34.585Z,1.60
2022-07-27T11:13:38.944Z,1.60
2022-07-27T11:15:55.803Z,1.30
2022-07-27T11:18:04.913Z,1.30
2022-07-27T11:20:07.531Z,1.60
2022-07-27T11:22:28.351Z,1.70
2022-07-27T11:24:30.750Z,1.60
2022-07-27T11:26:39.930Z,1.63
2022-07-27T11:28:44.224Z,1.40
2022-07-27T11:30:45.994Z,1.65
2022-07-27T11:32:47.711Z,1.80
2022-07-27T11:34:50.581Z,1.60
2022-07-27T11:36:52.591Z,1.40
2022-07-27T11:38:54.969Z,1.70
2022-07-27T11:41:07.198Z,1.58
2022-07-27T11:43:45.790Z,1.67
2022-07-27T11:45:49.584Z,1.85
2022-07-27T11:47:57.950Z,1.70
2022-07-27T11:50:12.167Z,1.60
2022-07-27T11:52:18.004Z,1.55
2022-07-27T11:54:31.265Z,1.58
2022-07-27T11:56:37.377Z,1.70
2022-07-27T11:59:01.398Z,1.63
2022-07-27T12:01:03.254Z,1.83
2022-07-27T12:03:04.965Z,1.60
2022-07-27T12:05:10.200Z,1.65
2022-07-27T12:07:22.086Z,1.42
2022-07-27T12:09:25.001Z,1.50
2022-07-27T12:11:50.550Z,1.50
2022-07-27T12:14:00.125Z,1.63
2022-07-27T12:16:02.337Z,1.45
2022-07-27T12:18:06.153Z,1.80
2022-07-27T12:20:13.192Z,1.63
2022-07-27T12:22:23.691Z,1.45
2022-07-27T12:24:33.099Z,1.48
2022-07-27T12:26:34.910Z,1.52
2022-07-27T12:28:36.705Z,1.40
2022-07-27T12:30:46.822Z,1.55
2022-07-27T12:32:52.678Z,1.20
2022-07-27T12:34:57.538Z,1.40
2022-07-27T12:36:59.125Z,1.75
2022-07-27T12:39:00.802Z,1.67
2022-07-27T12:41:02.417Z,1.60
2022-07-27T12:43:06.550Z,1.70
2022-07-27T12:45:32.394Z,1.70
2022-07-27T12:47:43.452Z,1.40
2022-07-27T12:49:46.697Z,1.40
2022-07-27T12:51:49.043Z,1.70
2022-07-27T12:53:50.654Z,1.50
2022-07-27T12:55:56.033Z,1.42
2022-07-27T12:57:58.120Z,1.45
2022-07-27T12:59:59.845Z,1.45
2022-07-27T13:02:01.667Z,1.48
2022-07-27T13:04:03.382Z,1.63
2022-07-27T13:06:08.032Z,1.50
2022-07-27T13:08:16.737Z,1.40
2022-07-27T13:10:19.611Z,1.40
2022-07-27T13:12:22.041Z,1.65
2022-07-27T13:14:23.956Z,1.65
2022-07-27T13:16:26.030Z,1.70
2022-07-27T13:18:27.711Z,1.45
2022-07-27T13:20:29.554Z,1.30
2022-07-27T13:22:31.063Z,1.30
2022-07-27T13:24:32.643Z,1.67
2022-07-27T13:26:34.257Z,1.40
2022-07-27T13:28:36.561Z,1.75
2022-07-27T13:30:38.264Z,1.45
2022-07-27T13:32:41.169Z,1.60
2022-07-27T13:34:42.849Z,1.52
2022-07-27T13:36:44.458Z,1.48
2022-07-27T13:38:46.107Z,1.40
2022-07-27T13:40:48.291Z,1.20
2022-07-27T13:42:50.198Z,1.42
2022-07-27T13:45:04.247Z,1.40
2022-07-27T13:47:11.936Z,1.55
2022-07-27T13:49:15.140Z,1.50
2022-07-27T13:51:17.076Z,1.23
2022-07-27T13:53:19.274Z,1.65
2022-07-27T13:55:26.165Z,1.40
2022-07-27T13:57:29.751Z,1.35
2022-07-27T13:59:31.515Z,1.58
2022-07-27T14:01:33.343Z,1.27
2022-07-27T14:03:35.733Z,1.38
2022-07-27T14:05:37.659Z,1.45
2022-07-27T14:07:43.389Z,1.20
2022-07-27T14:10:03.633Z,1.23
2022-07-27T14:12:05.488Z,1.33
2022-07-27T14:14:07.279Z,1.10
2022-07-27T14:16:09.074Z,1.40
2022-07-27T14:18:10.792Z,1.30
2022-07-27T14:20:12.809Z,1.33
2022-07-27T14:22:15.021Z,1.42
2022-07-27T14:24:16.670Z,1.30
2022-07-27T14:26:18.441Z,1.50
2022-07-27T14:28:21.318Z,1.30
2022-07-27T14:30:23.288Z,1.38
2022-07-27T14:32:24.850Z,1.33
2022-07-27T14:34:26.597Z,1.50
2022-07-27T14:36:28.374Z,1.27
2022-07-27T14:38:31.410Z,1.40
2022-07-27T14:40:33.057Z,1.20
2022-07-27T14:42:34.835Z,1.27
2022-07-27T14:44:36.605Z,1.40
2022-07-27T14:46:38.287Z,1.45
2022-07-27T14:49:05.205Z,1.17
2022-07-27T14:51:01.555Z,1.27
2022-07-27T14:53:03.192Z,1.20
2022-07-27T14:55:05.541Z,1.30
2022-07-27T14:57:07.265Z,1.50
2022-07-27T14:59:08.981Z,1.60
2022-07-27T15:01:10.729Z,1.15
2022-07-27T15:03:14.596Z,1.02
2022-07-27T15:05:16.742Z,1.20
2022-07-27T15:07:18.519Z,1.35
2022-07-27T15:09:20.303Z,1.38
2022-07-27T15:11:23.614Z,1.30
2022-07-27T15:13:25.598Z,1.30
2022-07-27T15:15:27.446Z,1.20
2022-07-27T15:17:29.350Z,1.40
2022-07-27T15:19:31.155Z,1.50
2022-07-27T15:21:32.844Z,1.30
2022-07-27T15:23:34.521Z,1.40
2022-07-27T15:25:36.178Z,1.33
2022-07-27T15:27:37.966Z,1.42
2022-07-27T15:29:40.863Z,1.42
2022-07-27T15:31:43.366Z,1.23
2022-07-27T15:33:45.425Z,1.10
2022-07-27T15:35:47.197Z,1.10
2022-07-27T15:37:54.305Z,1.30
2022-07-27T15:39:57.641Z,1.40
2022-07-27T15:42:00.422Z,1.42
2022-07-27T15:44:02.179Z,1.38
2022-07-27T15:46:04.286Z,1.45
2022-07-27T15:48:08.667Z,1.40
2022-07-27T15:50:10.763Z,1.20
2022-07-27T15:52:12.387Z,1.30
2022-07-27T15:54:15.538Z,1.30
2022-07-27T15:56:17.338Z,1.33
2022-07-27T15:58:19.689Z,1.30
2022-07-27T16:00:21.400Z,1.50
2022-07-27T16:02:26.435Z,1.40
2022-07-27T16:04:28.157Z,1.50
2022-07-27T16:06:34.030Z,1.33
2022-07-27T16:08:38.833Z,1.60
2022-07-27T16:10:41.701Z,1.92
2022-07-27T16:12:43.394Z,1.70
2022-07-27T16:14:49.159Z,1.52
2022-07-27T16:16:51.903Z,1.58
2022-07-27T16:18:55.105Z,1.50
2022-07-27T16:20:56.945Z,1.73
2022-07-27T16:22:58.592Z,1.55
2022-07-27T16:25:01.255Z,1.55
2022-07-27T16:27:04.620Z,1.30
2022-07-27T16:29:06.453Z,1.40
2022-07-27T16:31:11.752Z,1.33
2022-07-27T16:33:13.581Z,1.42
2022-07-27T16:35:15.098Z,1.45
2022-07-27T16:37:17.315Z,1.45
2022-07-27T16:39:19.238Z,2.05
2022-07-27T16:41:22.521Z,2.42
2022-07-27T16:43:35.649Z,2.60
2022-07-27T16:45:40.662Z,2.50
2022-07-27T16:47:42.341Z,2.08
2022-07-27T16:49:44.074Z,1.70
2022-07-27T16:51:46.152Z,1.75
2022-07-27T16:53:50.466Z,1.80
2022-07-27T16:55:52.377Z,1.80
2022-07-27T16:57:54.048Z,1.50
2022-07-27T16:59:55.772Z,1.70
2022-07-27T17:01:57.451Z,1.58
2022-07-27T17:03:59.091Z,1.40
2022-07-27T17:06:06.141Z,1.50
2022-07-27T17:08:10.909Z,1.73
2022-07-27T17:10:12.550Z,1.67
2022-07-27T17:12:28.618Z,1.58
2022-07-27T17:14:30.512Z,1.60
2022-07-27T17:16:33.909Z,2.00
2022-07-27T17:18:40.293Z,1.83
2022-07-27T17:20:42.229Z,1.90
2022-07-27T17:22:43.831Z,1.98
2022-07-27T17:24:45.429Z,2.00
2022-07-27T17:26:47.046Z,1.60
2022-07-27T17:28:48.719Z,1.75
2022-07-27T17:30:50.308Z,1.77
2022-07-27T17:32:53.266Z,1.80
2022-07-27T17:34:54.838Z,1.75
2022-07-27T17:36:56.429Z,1.83
2022-07-27T17:39:00.886Z,2.65
2022-07-27T17:41:02.625Z,2.88
2022-07-27T17:43:04.322Z,3.97
2022-07-27T17:45:07.065Z,5.07
2022-07-27T17:47:08.807Z,5.40
2022-07-27T17:49:11.037Z,5.75
2022-07-27T17:51:13.078Z,4.95
2022-07-27T17:53:14.928Z,4.50
2022-07-27T17:55:16.480Z,4.90
2022-07-27T17:57:18.372Z,3.90
2022-07-27T17:59:37.252Z,3.40
2022-07-27T18:01:47.439Z,2.80
2022-07-27T18:03:50.047Z,2.50
2022-07-27T18:05:51.806Z,2.33
2022-07-27T18:07:53.946Z,2.40
2022-07-27T18:09:55.758Z,2.17
2022-07-27T18:11:57.429Z,1.98
2022-07-27T18:13:58.971Z,2.20
2022-07-27T18:16:00.724Z,1.70
2022-07-27T18:18:02.484Z,1.80
2022-07-27T18:20:05.617Z,1.63
2022-07-27T18:22:07.137Z,1.95
2022-07-27T18:24:10.116Z,1.50
2022-07-27T18:26:12.364Z,1.40
2022-07-27T18:28:16.238Z,1.50
2022-07-27T18:30:18.266Z,1.55
2022-07-27T18:32:22.199Z,1.58
2022-07-27T18:34:24.191Z,1.10
2022-07-27T18:36:25.905Z,1.27
2022-07-27T18:38:27.694Z,1.13
2022-07-27T18:40:29.498Z,1.40
2022-07-27T18:42:31.319Z,1.65
2022-07-27T18:44:38.589Z,1.23
2022-07-27T18:46:41.490Z,1.20
2022-07-27T18:48:44.357Z,1.40
2022-07-27T18:50:46.005Z,1.30
2022-07-27T18:52:47.831Z,1.10
2022-07-27T18:54:49.432Z,1.30
2022-07-27T18:56:51.053Z,1.27
2022-07-27T18:58:55.855Z,1.30
2022-07-27T19:00:58.398Z,1.35
2022-07-27T19:03:00.093Z,1.30
2022-07-27T19:05:01.741Z,1.20
2022-07-27T19:07:05.617Z,1.45
2022-07-27T19:09:08.116Z,1.10
2022-07-27T19:11:10.349Z,1.13
2022-07-27T19:13:13.228Z,1.30
2022-07-27T19:15:15.017Z,1.52
2022-07-27T19:17:16.806Z,1.25
2022-07-27T19:19:23.171Z,1.08
2022-07-27T19:21:25.290Z,1.40
2022-07-27T19:23:27.122Z,1.42
2022-07-27T19:25:30.361Z,1.30
2022-07-27T19:27:32.016Z,1.25
2022-07-27T19:29:41.038Z,1.45
2022-07-27T19:31:42.758Z,1.60
2022-07-27T19:33:44.491Z,1.35
2022-07-27T19:35:46.554Z,1.50
2022-07-27T19:37:48.161Z,1.55
2022-07-27T19:40:02.312Z,1.60
2022-07-27T19:42:07.499Z,1.50
2022-07-27T19:44:09.539Z,1.55
2022-07-27T19:46:11.208Z,1.60
2022-07-27T19:48:13.015Z,1.83
2022-07-27T19:50:14.658Z,1.55
2022-07-27T19:52:16.531Z,1.80
2022-07-27T19:54:19.614Z,1.60
2022-07-27T19:56:22.442Z,1.60
2022-07-27T19:58:24.045Z,1.58
2022-07-27T20:00:25.766Z,1.20
2022-07-27T20:02:27.556Z,1.05
2022-07-27T20:04:29.843Z,1.38
2022-07-27T20:06:32.426Z,1.10
2022-07-27T20:08:34.716Z,1.33
2022-07-27T20:10:36.275Z,1.27
2022-07-27T20:12:38.063Z,1.50
2022-07-27T20:14:39.609Z,1.27
2022-07-27T20:16:42.200Z,1.25
2022-07-27T20:18:43.770Z,1.20
2022-07-27T20:20:45.486Z,1.30
2022-07-27T20:22:47.712Z,1.17
2022-07-27T20:24:49.250Z,1.30
2022-07-27T20:26:50.784Z,1.20
2022-07-27T20:28:53.149Z,1.10
2022-07-27T20:30:54.707Z,1.48
2022-07-27T20:32:56.692Z,1.27
2022-07-27T20:34:58.303Z,1.45
2022-07-27T20:37:00.520Z,1.40
2022-07-27T20:39:04.818Z,1.40
2022-07-27T20:41:09.101Z,1.40
2022-07-27T20:43:10.763Z,1.40
2022-07-27T20:45:14.378Z,1.40
2022-07-27T20:47:16.434Z,1.55
2022-07-27T20:49:18.542Z,1.20
2022-07-27T20:51:20.448Z,1.35
2022-07-27T20:53:22.140Z,1.27
2022-07-27T20:55:24.060Z,1.13
2022-07-27T20:57:25.795Z,1.33
2022-07-27T20:59:27.564Z,1.50
2022-07-27T21:01:29.255Z,1.40
2022-07-27T21:03:31.555Z,1.27
2022-07-27T21:05:33.683Z,1.30
2022-07-27T21:07:35.518Z,1.33
2022-07-27T21:09:37.354Z,1.38
2022-07-27T21:11:41.890Z,1.60
2022-07-27T21:13:43.553Z,1.88
2022-07-27T21:15:45.357Z,1.70
2022-07-27T21:17:47.045Z,1.55
2022-07-27T21:19:48.656Z,1.85
2022-07-27T21:21:50.339Z,1.83
2022-07-27T21:24:11.136Z,1.75
2022-07-27T21:26:15.379Z,1.60
2022-07-27T21:28:24.733Z,2.17
2022-07-27T21:30:26.750Z,1.65
2022-07-27T21:32:28.939Z,1.65
2022-07-27T21:34:30.568Z,1.60
2022-07-27T21:36:32.414Z,1.58
2022-07-27T21:38:34.404Z,1.40
2022-07-27T21:40:36.192Z,1.40
2022-07-27T21:42:38.925Z,1.30
2022-07-27T21:44:40.976Z,1.70
2022-07-27T21:46:42.828Z,1.40
2022-07-27T21:48:44.581Z,1.80
2022-07-27T21:50:46.230Z,2.00
2022-07-27T21:52:47.884Z,2.15
2022-07-27T21:54:49.918Z,1.80
2022-07-27T21:56:51.572Z,1.50
2022-07-27T21:58:53.169Z,1.42
2022-07-27T22:00:54.927Z,1.40
2022-07-27T22:02:57.687Z,1.33
2022-07-27T22:04:59.193Z,1.30
2022-07-27T22:07:00.779Z,1.67
2022-07-27T22:09:02.833Z,1.20
2022-07-27T22:11:05.377Z,1.20
2022-07-27T22:13:07.018Z,1.50
2022-07-27T22:15:09.120Z,1.40
2022-07-27T22:17:10.772Z,1.30
2022-07-27T22:19:12.459Z,1.20
2022-07-27T22:21:14.015Z,1.58
2022-07-27T22:23:15.787Z,1.40
2022-07-27T22:25:18.726Z,1.42
2022-07-27T22:27:20.955Z,1.50
2022-07-27T22:29:22.602Z,1.50
2022-07-27T22:31:24.300Z,1.30
2022-07-27T22:33:26.009Z,1.45
2022-07-27T22:35:27.840Z,1.45
2022-07-27T22:37:29.441Z,1.35
2022-07-27T22:39:31.007Z,1.10
2022-07-27T22:41:32.584Z,1.40
2022-07-27T22:43:34.420Z,1.20
2022-07-27T22:45:36.235Z,1.25
2022-07-27T22:47:38.221Z,1.60
2022-07-27T22:49:39.784Z,1.73
2022-07-27T22:51:49.411Z,1.30
2022-07-27T22:53:54.537Z,1.33
2022-07-27T22:55:56.291Z,1.35
2022-07-27T22:57:57.925Z,1.13
2022-07-27T23:00:04.848Z,1.38
2022-07-27T23:02:06.473Z,1.30
2022-07-27T23:04:08.168Z,1.30
2022-07-27T23:06:09.927Z,1.50
2022-07-27T23:08:11.674Z,1.13
2022-07-27T23:10:31.899Z,1.20
2022-07-27T23:12:33.452Z,1.20
2022-07-27T23:14:35.481Z,1.13
2022-07-27T23:16:37.255Z,1.10
2022-07-27T23:18:38.914Z,1.10
2022-07-27T23:20:43.129Z,1.10
2022-07-27T23:22:44.776Z,1.30
2022-07-27T23:24:51.165Z,1.30
2022-07-27T23:26:53.556Z,1.23
2022-07-27T23:28:55.486Z,1.45
2022-07-27T23:30:56.913Z,1.38
2022-07-27T23:32:58.596Z,1.30
2022-07-27T23:35:00.355Z,1.10
2022-07-27T23:37:01.974Z,1.00
2022-07-27T23:39:03.887Z,1.30
2022-07-27T23:41:05.545Z,1.40
2022-07-27T23:43:07.074Z,1.30
2022-07-27T23:45:10.522Z,1.20
2022-07-27T23:47:13.215Z,1.08
2022-07-27T23:49:15.160Z,1.20
2022-07-27T23:51:20.728Z,1.13
2022-07-27T23:53:23.781Z,1.10
2022-07-27T23:55:25.538Z,1.40
2022-07-27T23:57:28.550Z,1.60
2022-07-27T23:59:30.588Z,1.23
